createdAt,value
2023-01-07T00:01:08.562Z,12.10
2023-01-07T00:03:35.945Z,11.50
2023-01-07T00:06:05.075Z,12.10
2023-01-07T00:08:32.859Z,12.10
2023-01-07T00:11:03.956Z,12.20
2023-01-07T00:13:31.413Z,12.20
2023-01-07T00:16:05.603Z,12.20
2023-01-07T00:18:33.105Z,12.20
2023-01-07T00:21:02.166Z,12.20
2023-01-07T00:23:30.240Z,12.10
2023-01-07T00:26:01.741Z,12.10
2023-01-07T00:28:28.929Z,12.10
2023-01-07T00:31:02.403Z,12.10
2023-01-07T00:33:29.826Z,12.10
2023-01-07T00:36:04.569Z,12.10
2023-01-07T00:38:58.846Z,12.10
2023-01-07T00:41:26.145Z,12.10
2023-01-07T00:50:10.168Z,12.20
2023-01-07T00:52:37.297Z,12.20
2023-01-07T00:55:04.610Z,12.20
2023-01-07T00:57:31.738Z,12.20
2023-01-07T00:59:58.916Z,12.20
2023-01-07T01:02:26.100Z,12.20
2023-01-07T01:04:53.376Z,12.20
2023-01-07T01:07:20.636Z,12.20
2023-01-07T01:09:47.769Z,12.30
2023-01-07T01:12:14.871Z,12.10
2023-01-07T01:14:42.250Z,12.20
2023-01-07T01:17:09.376Z,12.20
2023-01-07T01:19:36.475Z,12.10
2023-01-07T01:22:03.664Z,12.20
2023-01-07T01:24:30.890Z,12.10
2023-01-07T01:26:58.009Z,12.20
2023-01-07T01:29:25.187Z,12.20
2023-01-07T01:31:52.384Z,12.20
2023-01-07T01:34:19.750Z,12.20
2023-01-07T01:36:46.926Z,12.20
2023-01-07T01:39:14.219Z,13.00
2023-01-07T01:41:41.391Z,12.50
2023-01-07T01:44:27.539Z,12.20
2023-01-07T01:46:54.766Z,12.20
2023-01-07T01:49:21.970Z,12.30
2023-01-07T01:51:55.988Z,12.20
2023-01-07T01:54:25.547Z,12.00
2023-01-07T01:56:53.965Z,12.20
2023-01-07T01:59:24.306Z,12.20
2023-01-07T02:01:51.564Z,12.30
2023-01-07T02:04:20.869Z,12.20
2023-01-07T02:06:51.295Z,12.20
2023-01-07T02:09:18.437Z,12.20
2023-01-07T02:11:45.557Z,12.20
2023-01-07T02:14:16.174Z,12.20
2023-01-07T02:16:58.075Z,12.20
2023-01-07T02:19:25.367Z,12.20
2023-01-07T02:22:06.787Z,12.20
2023-01-07T02:24:39.718Z,12.10
2023-01-07T02:27:16.099Z,12.10
2023-01-07T02:30:02.122Z,12.10
2023-01-07T02:32:36.337Z,12.10
2023-01-07T02:35:08.278Z,13.20
2023-01-07T02:37:44.574Z,12.20
2023-01-07T02:40:23.862Z,12.10
2023-01-07T02:42:51.062Z,12.20
2023-01-07T02:45:28.568Z,12.20
2023-01-07T02:48:04.239Z,12.10
2023-01-07T02:50:31.650Z,12.10
2023-01-07T02:52:58.805Z,12.10
2023-01-07T02:55:45.354Z,12.20
2023-01-07T02:58:27.444Z,12.10
2023-01-07T03:00:57.487Z,12.10
2023-01-07T03:03:36.709Z,12.10
2023-01-07T03:06:23.003Z,12.10
2023-01-07T03:08:50.295Z,12.10
2023-01-07T03:11:19.807Z,12.20
2023-01-07T03:13:58.804Z,12.10
2023-01-07T03:16:29.612Z,12.10
2023-01-07T03:19:00.581Z,12.10
2023-01-07T03:21:29.091Z,12.10
2023-01-07T03:23:57.018Z,12.10
2023-01-07T03:26:27.122Z,12.90
2023-01-07T03:28:54.754Z,12.00
2023-01-07T03:31:22.482Z,12.00
2023-01-07T03:33:55.626Z,12.00
2023-01-07T03:36:27.914Z,12.00
2023-01-07T03:38:55.242Z,12.00
2023-01-07T03:41:41.102Z,12.00
2023-01-07T03:44:09.196Z,12.00
2023-01-07T03:46:37.158Z,12.00
2023-01-07T03:49:04.390Z,12.00
2023-01-07T03:51:31.546Z,11.90
2023-01-07T03:53:58.687Z,12.00
2023-01-07T03:56:25.973Z,12.00
2023-01-07T03:58:53.311Z,12.00
2023-01-07T04:01:20.654Z,12.00
2023-01-07T04:03:47.872Z,12.00
2023-01-07T04:06:15.023Z,12.00
2023-01-07T04:08:42.717Z,12.00
2023-01-07T04:11:09.844Z,11.90
2023-01-07T04:13:36.983Z,11.90
2023-01-07T04:16:04.185Z,11.90
2023-01-07T04:18:31.265Z,11.90
2023-01-07T04:20:58.421Z,11.90
2023-01-07T04:23:25.635Z,11.80
2023-01-07T04:25:52.823Z,11.80
2023-01-07T04:28:19.955Z,11.70
2023-01-07T04:30:47.038Z,11.70
2023-01-07T04:33:14.263Z,11.70
2023-01-07T04:35:41.767Z,11.60
2023-01-07T04:38:09.315Z,11.60
2023-01-07T04:40:36.449Z,11.60
2023-01-07T04:43:03.723Z,11.60
2023-01-07T04:45:32.048Z,11.60
2023-01-07T04:47:59.158Z,11.60
2023-01-07T04:50:26.390Z,11.60
2023-01-07T04:52:53.606Z,11.40
2023-01-07T04:55:20.920Z,11.60
2023-01-07T04:57:48.012Z,11.50
2023-01-07T05:00:15.449Z,11.50
2023-01-07T05:02:42.597Z,11.50
2023-01-07T05:05:10.058Z,11.30
2023-01-07T05:07:37.228Z,11.50
2023-01-07T05:10:04.939Z,11.50
2023-01-07T05:12:35.640Z,11.50
2023-01-07T05:15:05.774Z,11.50
2023-01-07T05:17:33.082Z,11.90
2023-01-07T05:20:00.200Z,11.40
2023-01-07T05:22:27.532Z,11.30
2023-01-07T05:24:54.665Z,11.40
2023-01-07T05:27:22.247Z,11.40
2023-01-07T05:29:49.333Z,12.00
2023-01-07T05:32:16.545Z,11.40
2023-01-07T05:34:43.709Z,11.40
2023-01-07T05:37:10.793Z,10.90
2023-01-07T05:39:37.938Z,11.40
2023-01-07T05:42:05.170Z,11.40
2023-01-07T05:44:32.453Z,11.40
2023-01-07T05:46:59.575Z,11.40
2023-01-07T05:49:26.736Z,11.40
2023-01-07T05:51:53.876Z,11.30
2023-01-07T05:54:21.026Z,11.40
2023-01-07T05:56:48.159Z,11.40
2023-01-07T05:59:15.532Z,11.30
2023-01-07T06:01:42.653Z,11.30
2023-01-07T06:04:09.839Z,11.60
2023-01-07T06:06:36.958Z,11.30
2023-01-07T06:09:04.141Z,11.30
2023-01-07T06:11:31.434Z,11.30
2023-01-07T06:13:58.583Z,11.30
2023-01-07T06:16:25.855Z,11.30
2023-01-07T06:18:53.054Z,11.40
2023-01-07T06:21:21.579Z,11.30
2023-01-07T06:23:48.749Z,11.30
2023-01-07T06:26:15.801Z,11.20
2023-01-07T06:28:42.950Z,11.30
2023-01-07T06:31:10.717Z,11.20
2023-01-07T06:33:41.015Z,11.30
2023-01-07T06:36:08.435Z,11.30
2023-01-07T06:38:36.080Z,11.20
2023-01-07T06:41:03.345Z,11.30
2023-01-07T06:43:30.456Z,11.20
2023-01-07T06:45:57.730Z,11.20
2023-01-07T06:48:24.883Z,11.20
2023-01-07T06:50:52.175Z,11.10
2023-01-07T06:53:19.324Z,11.30
2023-01-07T06:55:49.881Z,11.20
2023-01-07T06:58:17.820Z,11.20
2023-01-07T07:00:45.145Z,11.20
2023-01-07T07:03:12.343Z,11.20
2023-01-07T07:05:40.336Z,11.20
2023-01-07T07:08:07.756Z,11.30
2023-01-07T07:10:35.695Z,11.20
2023-01-07T07:13:03.033Z,11.20
2023-01-07T07:15:30.176Z,11.20
2023-01-07T07:17:57.260Z,11.20
2023-01-07T07:20:24.376Z,11.20
2023-01-07T07:22:51.495Z,11.20
2023-01-07T07:25:18.887Z,11.20
2023-01-07T07:27:46.606Z,11.20
2023-01-07T07:30:15.154Z,11.20
2023-01-07T07:32:42.898Z,11.20
2023-01-07T07:35:10.371Z,11.20
2023-01-07T07:37:37.708Z,11.20
2023-01-07T07:40:05.841Z,10.90
2023-01-07T07:43:11.788Z,11.20
2023-01-07T07:45:20.326Z,11.20
2023-01-07T07:47:47.451Z,11.20
2023-01-07T07:50:14.641Z,11.20
2023-01-07T07:52:41.832Z,11.20
2023-01-07T07:55:20.399Z,11.10
2023-01-07T07:57:54.380Z,11.90
2023-01-07T08:00:21.705Z,11.20
2023-01-07T08:02:48.848Z,11.10
2023-01-07T08:05:16.380Z,11.10
2023-01-07T08:07:43.718Z,11.20
2023-01-07T08:10:10.849Z,11.20
2023-01-07T08:12:38.462Z,11.20
2023-01-07T08:15:07.027Z,11.30
2023-01-07T08:17:34.360Z,11.30
2023-01-07T08:20:01.531Z,11.20
2023-01-07T08:22:28.831Z,11.30
2023-01-07T08:24:56.918Z,11.20
2023-01-07T08:27:24.199Z,11.20
2023-01-07T08:29:51.306Z,11.20
2023-01-07T08:32:18.653Z,11.10
2023-01-07T08:34:45.759Z,11.20
2023-01-07T08:37:12.840Z,11.20
2023-01-07T08:39:40.111Z,12.20
2023-01-07T08:42:07.242Z,11.30
2023-01-07T08:44:34.753Z,11.30
2023-01-07T08:47:02.705Z,11.40
2023-01-07T08:49:29.887Z,11.30
2023-01-07T08:51:56.974Z,11.40
2023-01-07T08:54:24.160Z,11.00
2023-01-07T08:56:51.270Z,11.40
2023-01-07T08:59:18.563Z,11.40
2023-01-07T09:01:45.919Z,11.40
2023-01-07T09:04:13.315Z,11.20
2023-01-07T09:06:40.431Z,11.40
2023-01-07T09:09:07.686Z,11.30
2023-01-07T09:11:34.955Z,11.20
2023-01-07T09:14:02.190Z,10.90
2023-01-07T09:16:29.450Z,11.20
2023-01-07T09:18:56.598Z,11.10
2023-01-07T09:21:23.695Z,11.20
2023-01-07T09:23:51.001Z,11.70
2023-01-07T09:26:18.150Z,11.20
2023-01-07T09:28:45.282Z,11.10
2023-01-07T09:31:12.572Z,11.00
2023-01-07T09:33:41.319Z,12.40
2023-01-07T09:36:08.432Z,11.00
2023-01-07T09:38:35.541Z,11.00
2023-01-07T09:41:02.712Z,10.90
2023-01-07T09:43:59.610Z,11.10
2023-01-07T09:46:27.332Z,10.80
2023-01-07T09:48:58.048Z,10.90
2023-01-07T09:51:27.680Z,10.80
2023-01-07T09:53:57.394Z,10.80
2023-01-07T09:56:29.070Z,10.80
2023-01-07T09:58:56.874Z,10.70
2023-01-07T10:01:26.986Z,10.70
2023-01-07T10:03:54.213Z,10.70
2023-01-07T10:06:43.620Z,10.70
2023-01-07T10:09:29.505Z,10.80
2023-01-07T10:12:22.698Z,11.00
2023-01-07T10:14:55.944Z,10.80
2023-01-07T10:17:29.648Z,10.80
2023-01-07T10:20:12.125Z,10.70
2023-01-07T10:22:45.747Z,10.70
2023-01-07T10:25:19.169Z,10.70
2023-01-07T10:27:47.296Z,10.70
2023-01-07T10:30:26.373Z,10.70
2023-01-07T10:32:57.113Z,10.70
2023-01-07T10:35:25.152Z,10.70
2023-01-07T10:37:52.736Z,10.60
2023-01-07T10:40:20.167Z,10.50
2023-01-07T10:43:08.215Z,10.60
2023-01-07T10:45:54.048Z,10.60
2023-01-07T10:48:27.146Z,10.60
2023-01-07T10:50:54.226Z,10.60
2023-01-07T10:53:24.442Z,10.50
2023-01-07T10:55:55.154Z,10.50
2023-01-07T10:58:22.956Z,10.50
2023-01-07T11:00:50.319Z,10.50
2023-01-07T11:03:22.025Z,10.50
2023-01-07T11:05:55.204Z,10.60
2023-01-07T11:08:28.067Z,10.50
2023-01-07T11:10:56.214Z,10.60
2023-01-07T11:13:27.136Z,10.50
2023-01-07T11:16:24.356Z,10.60
2023-01-07T11:18:55.144Z,10.50
2023-01-07T11:21:52.441Z,10.60
2023-01-07T11:24:19.592Z,10.60
2023-01-07T11:26:46.789Z,10.70
2023-01-07T11:29:16.008Z,10.70
2023-01-07T11:31:46.133Z,10.70
2023-01-07T11:34:22.850Z,10.70
2023-01-07T11:36:50.203Z,10.70
2023-01-07T11:39:24.682Z,10.80
2023-01-07T11:41:55.507Z,10.70
2023-01-07T11:44:23.212Z,10.90
2023-01-07T11:46:50.509Z,12.10
2023-01-07T11:49:31.152Z,10.80
2023-01-07T11:51:59.320Z,10.80
2023-01-07T11:54:27.793Z,10.80
2023-01-07T11:57:11.706Z,10.80
2023-01-07T11:59:38.884Z,10.80
2023-01-07T12:02:22.054Z,12.00
2023-01-07T12:04:49.190Z,11.90
2023-01-07T12:07:16.761Z,10.90
2023-01-07T12:09:45.502Z,10.80
2023-01-07T12:12:37.344Z,11.30
2023-01-07T12:15:17.849Z,10.90
2023-01-07T12:17:46.411Z,11.00
2023-01-07T12:20:16.865Z,10.90
2023-01-07T12:22:58.553Z,10.90
2023-01-07T12:25:52.834Z,10.90
2023-01-07T12:28:26.599Z,10.90
2023-01-07T12:31:03.195Z,10.90
2023-01-07T12:33:51.971Z,11.00
2023-01-07T12:36:31.349Z,10.90
2023-01-07T12:39:06.111Z,11.70
2023-01-07T12:41:36.261Z,11.00
2023-01-07T12:44:06.376Z,11.10
2023-01-07T12:47:30.893Z,12.60
2023-01-07T12:50:14.604Z,11.10
2023-01-07T12:53:00.494Z,11.20
2023-01-07T12:55:39.419Z,11.40
2023-01-07T12:58:13.765Z,11.30
2023-01-07T13:00:44.290Z,11.20
2023-01-07T13:03:29.832Z,11.20
2023-01-07T13:06:01.958Z,11.20
2023-01-07T13:08:34.985Z,11.20
2023-01-07T13:11:17.221Z,11.20
2023-01-07T13:13:47.441Z,11.20
2023-01-07T13:16:14.786Z,11.10
2023-01-07T13:18:42.034Z,11.20
2023-01-07T13:21:10.718Z,11.20
2023-01-07T13:23:56.626Z,11.20
2023-01-07T13:26:38.911Z,11.20
2023-01-07T13:29:24.462Z,11.20
2023-01-07T13:31:54.768Z,11.20
2023-01-07T13:34:40.214Z,11.20
2023-01-07T13:37:26.212Z,11.20
2023-01-07T13:40:01.524Z,11.20
2023-01-07T13:42:50.400Z,11.20
2023-01-07T13:45:19.007Z,11.20
2023-01-07T13:47:48.226Z,11.20
2023-01-07T13:50:38.377Z,11.20
2023-01-07T13:53:07.834Z,11.10
2023-01-07T13:55:39.165Z,11.20
2023-01-07T13:58:25.296Z,11.20
2023-01-07T14:01:08.851Z,11.30
2023-01-07T14:03:39.145Z,11.20
2023-01-07T14:06:18.232Z,11.30
2023-01-07T14:08:51.482Z,11.30
2023-01-07T14:11:41.982Z,11.30
2023-01-07T14:14:27.982Z,11.30
2023-01-07T14:17:14.053Z,11.30
2023-01-07T14:19:44.152Z,11.40
2023-01-07T14:22:17.129Z,11.40
2023-01-07T14:24:44.180Z,11.40
2023-01-07T14:27:30.189Z,11.40
2023-01-07T14:30:17.057Z,11.40
2023-01-07T14:32:45.065Z,11.40
2023-01-07T14:35:12.182Z,11.40
2023-01-07T14:37:39.280Z,11.40
2023-01-07T14:40:25.132Z,11.40
2023-01-07T14:42:55.891Z,11.40
2023-01-07T14:45:41.244Z,11.40
2023-01-07T14:48:08.501Z,11.30
2023-01-07T14:51:01.068Z,11.40
2023-01-07T14:53:37.767Z,11.40
2023-01-07T14:56:15.181Z,11.40
2023-01-07T14:58:51.357Z,11.50
2023-01-07T15:01:25.001Z,11.60
2023-01-07T15:03:52.279Z,11.60
2023-01-07T15:06:36.216Z,11.60
2023-01-07T15:09:22.213Z,11.60
2023-01-07T15:12:08.925Z,11.70
2023-01-07T15:14:54.782Z,11.60
2023-01-07T15:17:22.055Z,11.60
2023-01-07T15:19:49.465Z,11.60
2023-01-07T15:22:22.928Z,11.60
2023-01-07T15:24:59.161Z,11.60
2023-01-07T15:27:35.582Z,11.60
2023-01-07T15:30:08.825Z,11.60
2023-01-07T15:32:52.105Z,11.60
2023-01-07T15:35:23.199Z,11.50
2023-01-07T15:37:51.034Z,11.40
2023-01-07T15:40:19.654Z,11.40
2023-01-07T15:42:47.559Z,11.20
2023-01-07T15:45:19.107Z,11.20
2023-01-07T15:47:46.307Z,11.10
2023-01-07T15:50:20.851Z,11.10
2023-01-07T15:52:49.260Z,11.00
2023-01-07T15:55:22.103Z,10.90
2023-01-07T15:57:53.020Z,10.80
2023-01-07T16:00:21.366Z,10.70
2023-01-07T16:02:48.663Z,10.70
2023-01-07T16:05:18.033Z,10.60
2023-01-07T16:07:48.131Z,10.60
2023-01-07T16:10:18.959Z,10.50
2023-01-07T16:12:49.074Z,10.50
2023-01-07T16:15:36.327Z,10.40
2023-01-07T16:18:09.395Z,10.40
2023-01-07T16:20:41.079Z,10.40
2023-01-07T16:23:08.190Z,10.40
2023-01-07T16:25:40.296Z,10.50
2023-01-07T16:28:07.871Z,10.50
2023-01-07T16:30:37.903Z,10.50
2023-01-07T16:33:05.911Z,10.40
2023-01-07T16:35:39.932Z,10.40
2023-01-07T16:38:07.206Z,10.40
2023-01-07T16:40:36.057Z,10.40
2023-01-07T16:43:04.141Z,10.40
2023-01-07T16:45:32.598Z,10.50
2023-01-07T16:48:01.545Z,9.90
2023-01-07T16:50:36.111Z,10.50
2023-01-07T16:53:04.496Z,10.60
2023-01-07T16:55:47.060Z,10.50
2023-01-07T16:58:29.486Z,10.60
2023-01-07T17:00:57.688Z,10.50
2023-01-07T17:03:25.467Z,10.60
2023-01-07T17:05:58.135Z,10.60
2023-01-07T17:08:25.271Z,10.60
2023-01-07T17:10:57.670Z,10.60
2023-01-07T17:13:24.725Z,10.60
2023-01-07T17:15:51.977Z,10.60
2023-01-07T17:18:24.344Z,10.00
2023-01-07T17:20:53.038Z,10.50
2023-01-07T17:23:26.264Z,10.40
2023-01-07T17:26:04.660Z,10.40
2023-01-07T17:28:42.743Z,10.30
2023-01-07T17:31:09.916Z,10.30
2023-01-07T17:33:37.544Z,10.30
2023-01-07T17:36:04.798Z,10.20
2023-01-07T17:38:32.929Z,10.20
2023-01-07T17:41:00.605Z,10.20
2023-01-07T17:43:33.900Z,10.10
2023-01-07T17:46:01.656Z,10.50
2023-01-07T17:48:28.811Z,10.00
2023-01-07T17:50:57.284Z,10.00
2023-01-07T17:53:32.226Z,9.90
2023-01-07T17:56:03.036Z,10.20
2023-01-07T17:58:37.816Z,9.90
2023-01-07T18:01:09.956Z,9.90
2023-01-07T18:03:37.299Z,9.80
2023-01-07T18:06:04.609Z,9.90
2023-01-07T18:08:31.815Z,9.70
2023-01-07T18:11:18.085Z,9.90
2023-01-07T18:13:45.254Z,9.90
2023-01-07T18:16:13.542Z,9.90
2023-01-07T18:18:40.842Z,9.90
2023-01-07T18:21:09.384Z,9.70
2023-01-07T18:23:36.627Z,9.60
2023-01-07T18:26:04.684Z,9.40
2023-01-07T18:28:31.842Z,9.20
2023-01-07T18:30:59.377Z,9.10
2023-01-07T18:33:26.498Z,9.10
2023-01-07T18:35:54.210Z,8.90
2023-01-07T18:38:21.914Z,8.80
2023-01-07T18:40:49.123Z,8.70
2023-01-07T18:43:18.291Z,8.70
2023-01-07T18:45:46.050Z,8.70
2023-01-07T18:48:13.714Z,8.50
2023-01-07T18:50:42.086Z,8.50
2023-01-07T18:53:09.755Z,8.40
2023-01-07T18:55:37.198Z,8.40
2023-01-07T18:58:04.843Z,8.40
2023-01-07T19:00:32.938Z,8.40
2023-01-07T19:03:00.492Z,8.30
2023-01-07T19:05:28.598Z,8.30
2023-01-07T19:07:56.325Z,8.40
2023-01-07T19:10:24.237Z,8.30
2023-01-07T19:12:51.564Z,8.20
2023-01-07T19:15:18.698Z,7.50
2023-01-07T19:17:46.041Z,8.20
2023-01-07T19:20:15.319Z,8.20
2023-01-07T19:22:42.812Z,8.20
2023-01-07T19:25:10.569Z,8.20
2023-01-07T19:27:37.714Z,8.20
2023-01-07T19:30:05.656Z,8.20
2023-01-07T19:32:32.796Z,8.20
2023-01-07T19:34:59.964Z,8.20
2023-01-07T19:37:27.159Z,9.10
2023-01-07T19:39:54.235Z,8.20
2023-01-07T19:42:21.419Z,8.20
2023-01-07T19:44:48.656Z,8.00
2023-01-07T19:47:17.563Z,8.10
2023-01-07T19:49:45.474Z,7.70
2023-01-07T19:52:14.063Z,8.10
2023-01-07T19:54:41.864Z,8.10
2023-01-07T19:57:09.789Z,8.20
2023-01-07T19:59:36.905Z,8.20
2023-01-07T20:02:04.642Z,8.20
2023-01-07T20:04:31.936Z,8.10
2023-01-07T20:06:59.594Z,8.20
2023-01-07T20:09:26.704Z,8.20
2023-01-07T20:11:53.803Z,8.20
2023-01-07T20:14:20.954Z,8.30
2023-01-07T20:16:48.176Z,8.30
2023-01-07T20:19:15.901Z,8.30
2023-01-07T20:21:43.053Z,8.20
2023-01-07T20:24:13.570Z,8.20
2023-01-07T20:26:40.893Z,8.30
2023-01-07T20:29:08.051Z,8.20
2023-01-07T20:31:35.224Z,8.20
2023-01-07T20:34:02.623Z,8.20
2023-01-07T20:36:30.974Z,8.30
2023-01-07T20:39:03.866Z,8.20
2023-01-07T20:41:31.492Z,8.20
2023-01-07T20:43:59.653Z,8.20
2023-01-07T20:46:28.454Z,8.20
2023-01-07T20:48:56.239Z,8.20
2023-01-07T20:51:23.353Z,8.20
2023-01-07T20:53:50.606Z,8.20
2023-01-07T20:56:19.704Z,8.20
2023-01-07T20:58:47.172Z,8.20
2023-01-07T21:01:20.786Z,8.20
2023-01-07T21:03:48.688Z,8.20
2023-01-07T21:06:20.080Z,8.20
2023-01-07T21:08:47.900Z,8.20
2023-01-07T21:11:19.517Z,8.20
2023-01-07T21:13:47.096Z,8.10
2023-01-07T21:16:14.413Z,8.20
2023-01-07T21:18:41.894Z,8.20
2023-01-07T21:21:13.820Z,8.20
2023-01-07T21:23:41.215Z,8.20
2023-01-07T21:26:09.388Z,8.20
2023-01-07T21:28:36.814Z,8.20
2023-01-07T21:31:06.201Z,8.20
2023-01-07T21:33:33.382Z,8.20
2023-01-07T21:36:03.485Z,8.20
2023-01-07T21:38:30.630Z,8.20
2023-01-07T21:40:57.729Z,7.90
2023-01-07T21:43:25.475Z,8.10
2023-01-07T21:45:52.722Z,8.10
2023-01-07T21:48:19.879Z,8.20
2023-01-07T21:50:47.012Z,7.40
2023-01-07T21:53:14.245Z,8.30
2023-01-07T21:55:41.368Z,8.30
2023-01-07T21:58:08.516Z,8.30
2023-01-07T22:00:35.669Z,8.00
2023-01-07T22:03:02.801Z,8.20
2023-01-07T22:05:29.892Z,8.90
2023-01-07T22:07:57.029Z,8.30
2023-01-07T22:10:24.151Z,8.30
2023-01-07T22:12:51.262Z,8.30
2023-01-07T22:15:18.427Z,8.30
2023-01-07T22:17:45.533Z,8.30
2023-01-07T22:20:12.678Z,9.60
2023-01-07T22:22:39.837Z,8.30
2023-01-07T22:25:07.274Z,8.60
2023-01-07T22:27:34.404Z,8.30
2023-01-07T22:30:01.579Z,8.30
2023-01-07T22:32:28.690Z,8.30
2023-01-07T22:37:42.630Z,8.20
2023-01-07T22:40:10.050Z,8.60
2023-01-07T22:42:40.362Z,9.10
2023-01-07T22:45:13.362Z,8.20
2023-01-07T22:47:41.850Z,8.20
2023-01-07T22:50:09.490Z,9.10
2023-01-07T22:52:37.548Z,8.20
2023-01-07T22:55:05.036Z,8.20
2023-01-07T22:57:33.341Z,8.20
2023-01-07T23:00:00.669Z,8.30
2023-01-07T23:02:28.310Z,8.30
2023-01-07T23:04:55.429Z,8.20
2023-01-07T23:07:22.551Z,8.30
2023-01-07T23:09:51.520Z,9.40
2023-01-07T23:12:18.792Z,8.30
2023-01-07T23:14:45.907Z,8.20
2023-01-07T23:17:12.950Z,8.30
2023-01-07T23:19:40.057Z,8.30
2023-01-07T23:22:07.171Z,8.30
2023-01-07T23:24:35.724Z,8.30
2023-01-07T23:27:02.910Z,8.30
2023-01-07T23:29:29.983Z,8.40
2023-01-07T23:31:57.165Z,8.40
2023-01-07T23:34:24.348Z,8.40
2023-01-07T23:36:51.463Z,8.50
2023-01-07T23:39:18.576Z,8.40
2023-01-07T23:41:45.859Z,8.40
2023-01-07T23:44:13.074Z,8.40
2023-01-07T23:46:40.166Z,8.40
2023-01-07T23:49:07.374Z,8.50
2023-01-07T23:51:34.499Z,8.40
2023-01-07T23:54:01.644Z,8.40
2023-01-07T23:56:28.741Z,8.30
2023-01-07T23:58:55.937Z,8.30
